createdAt,value
2024-01-31T00:01:34.991Z,43.00
2024-01-31T00:06:36.750Z,40.33
2024-01-31T00:11:38.413Z,41.90
2024-01-31T00:16:40.163Z,36.40
2024-01-31T00:21:43.305Z,38.10
2024-01-31T00:26:45.093Z,38.05
2024-01-31T00:31:46.789Z,41.88
2024-01-31T00:36:48.478Z,39.97
2024-01-31T00:41:51.609Z,37.83
2024-01-31T00:46:53.493Z,38.65
2024-01-31T00:51:55.260Z,37.97
2024-01-31T00:56:56.980Z,37.22
2024-01-31T01:01:58.674Z,42.55
2024-01-31T01:07:00.507Z,37.97
2024-01-31T01:12:03.621Z,36.17
2024-01-31T01:17:05.473Z,43.72
2024-01-31T01:22:07.224Z,35.75
2024-01-31T01:27:08.901Z,37.83
2024-01-31T01:32:10.549Z,40.13
2024-01-31T01:37:12.280Z,40.15
2024-01-31T01:42:14.172Z,34.67
2024-01-31T01:47:17.728Z,36.88
2024-01-31T01:52:19.748Z,32.78
2024-01-31T01:57:21.660Z,37.40
2024-01-31T02:02:23.385Z,37.08
2024-01-31T02:07:28.180Z,36.88
2024-01-31T02:12:30.246Z,39.55
2024-01-31T02:17:34.626Z,37.70
2024-01-31T02:22:36.468Z,39.17
2024-01-31T02:27:38.192Z,42.75
2024-01-31T02:32:39.887Z,38.33
2024-01-31T02:37:44.966Z,36.65
2024-01-31T02:42:46.673Z,35.60
2024-01-31T02:47:48.424Z,32.75
2024-01-31T02:52:50.293Z,35.28
2024-01-31T02:57:51.933Z,32.80
2024-01-31T03:02:53.601Z,38.70
2024-01-31T03:07:55.245Z,30.92
2024-01-31T03:12:57.025Z,35.25
2024-01-31T03:17:59.613Z,38.35
2024-01-31T03:23:02.047Z,35.97
2024-01-31T03:28:03.993Z,35.70
2024-01-31T03:33:05.987Z,34.38
2024-01-31T03:38:09.187Z,33.63
2024-01-31T03:43:12.047Z,34.78
2024-01-31T03:48:13.850Z,33.33
2024-01-31T03:53:15.580Z,32.42
2024-01-31T03:58:17.349Z,38.53
2024-01-31T04:03:22.240Z,35.28
2024-01-31T04:08:24.127Z,46.17
2024-01-31T04:13:25.810Z,28.60
2024-01-31T04:18:27.735Z,25.48
2024-01-31T04:23:29.516Z,22.95
2024-01-31T04:28:31.876Z,25.35
2024-01-31T04:33:33.695Z,24.92
2024-01-31T04:38:36.127Z,25.50
2024-01-31T04:43:37.881Z,24.15
2024-01-31T04:48:39.857Z,24.30
2024-01-31T04:53:41.637Z,18.50
2024-01-31T04:58:43.371Z,15.50
2024-01-31T05:03:45.107Z,16.90
2024-01-31T05:08:46.756Z,15.65
2024-01-31T05:13:51.608Z,13.32
2024-01-31T05:18:53.819Z,17.27
2024-01-31T05:23:55.468Z,15.73
2024-01-31T05:28:57.107Z,14.00
2024-01-31T05:33:58.833Z,16.52
2024-01-31T05:39:00.608Z,15.27
2024-01-31T05:44:02.314Z,15.63
2024-01-31T05:49:04.312Z,17.15
2024-01-31T05:54:06.119Z,25.80
2024-01-31T05:59:09.857Z,28.77
2024-01-31T06:04:11.596Z,49.25
2024-01-31T06:09:13.817Z,28.90
2024-01-31T06:14:15.586Z,28.50
2024-01-31T06:19:17.268Z,16.90
2024-01-31T06:24:18.956Z,20.90
2024-01-31T06:29:20.728Z,16.33
2024-01-31T06:34:22.905Z,23.75
2024-01-31T06:39:24.680Z,18.98
2024-01-31T06:44:27.049Z,13.90
2024-01-31T06:49:29.050Z,16.70
2024-01-31T06:54:30.842Z,14.05
2024-01-31T06:59:32.549Z,20.88
2024-01-31T07:04:34.328Z,17.10
2024-01-31T07:09:36.099Z,18.92
2024-01-31T07:14:37.784Z,17.15
2024-01-31T07:19:46.198Z,14.18
2024-01-31T07:24:47.913Z,17.35
2024-01-31T07:29:49.824Z,15.23
2024-01-31T07:34:51.537Z,18.85
2024-01-31T07:39:58.666Z,18.67
2024-01-31T07:45:00.413Z,20.10
2024-01-31T07:50:02.302Z,17.52
2024-01-31T07:55:06.703Z,16.27
2024-01-31T08:00:08.950Z,13.93
2024-01-31T08:05:10.714Z,13.43
2024-01-31T08:10:13.823Z,14.43
2024-01-31T08:15:15.601Z,11.60
2024-01-31T08:20:18.225Z,11.60
2024-01-31T08:25:20.266Z,11.93
2024-01-31T08:30:22.596Z,12.38
2024-01-31T08:35:24.612Z,15.93
2024-01-31T08:40:26.390Z,12.43
2024-01-31T08:45:28.084Z,14.52
2024-01-31T08:50:29.900Z,18.17
2024-01-31T08:55:31.895Z,18.27
2024-01-31T09:00:33.743Z,15.05
2024-01-31T09:05:35.759Z,14.65
2024-01-31T09:10:37.728Z,14.55
2024-01-31T09:15:43.388Z,18.10
2024-01-31T09:21:01.346Z,15.00
2024-01-31T09:26:16.159Z,11.73
2024-01-31T09:31:28.764Z,11.82
2024-01-31T09:36:31.871Z,16.13
2024-01-31T09:41:34.175Z,15.00
2024-01-31T09:46:36.890Z,12.73
2024-01-31T09:51:38.975Z,11.40
2024-01-31T09:56:49.129Z,11.70
2024-01-31T10:02:16.336Z,13.50
2024-01-31T10:07:54.007Z,12.00
2024-01-31T10:12:58.921Z,9.25
2024-01-31T10:18:05.653Z,10.98
2024-01-31T10:23:16.427Z,11.70
2024-01-31T10:28:24.003Z,9.70
2024-01-31T10:33:27.560Z,12.52
2024-01-31T10:38:39.539Z,10.13
2024-01-31T10:43:44.457Z,10.68
2024-01-31T10:48:49.494Z,8.60
2024-01-31T10:54:00.129Z,10.50
2024-01-31T10:59:08.859Z,9.30
2024-01-31T11:04:13.690Z,12.00
2024-01-31T11:09:24.712Z,10.25
2024-01-31T11:14:36.943Z,8.70
2024-01-31T11:19:48.869Z,12.73
2024-01-31T11:24:57.312Z,10.52
2024-01-31T11:29:59.225Z,10.00
2024-01-31T11:35:10.012Z,11.38
2024-01-31T11:40:13.968Z,7.00
2024-01-31T11:45:17.991Z,9.65
2024-01-31T11:50:21.210Z,14.10
2024-01-31T11:55:26.422Z,9.30
2024-01-31T12:00:35.500Z,10.35
2024-01-31T12:05:38.662Z,15.18
2024-01-31T12:10:42.990Z,9.48
2024-01-31T12:15:50.311Z,11.32
2024-01-31T12:21:07.005Z,9.27
2024-01-31T12:26:09.441Z,19.35
2024-01-31T12:31:11.229Z,8.65
2024-01-31T12:36:13.042Z,12.75
2024-01-31T12:41:15.422Z,9.32
2024-01-31T12:46:18.156Z,11.40
2024-01-31T12:51:19.796Z,8.57
2024-01-31T12:56:21.548Z,18.65
2024-01-31T13:01:23.277Z,7.95
2024-01-31T13:06:24.980Z,8.20
2024-01-31T13:11:26.949Z,8.82
2024-01-31T13:16:30.223Z,8.10
2024-01-31T13:21:33.164Z,7.72
2024-01-31T13:26:37.003Z,7.88
2024-01-31T13:31:40.080Z,10.50
2024-01-31T13:36:42.224Z,11.13
2024-01-31T13:41:44.099Z,8.73
2024-01-31T13:46:45.781Z,8.55
2024-01-31T13:51:47.652Z,9.10
2024-01-31T13:56:49.333Z,13.82
2024-01-31T14:01:51.048Z,7.78
2024-01-31T14:06:52.804Z,8.73
2024-01-31T14:11:54.707Z,8.20
2024-01-31T14:16:57.139Z,10.60
2024-01-31T14:22:05.046Z,10.55
2024-01-31T14:27:14.202Z,17.63
2024-01-31T14:32:15.910Z,7.22
2024-01-31T14:37:17.610Z,2.30
2024-01-31T14:42:19.294Z,2.83
2024-01-31T14:47:20.984Z,2.38
2024-01-31T14:52:24.535Z,2.70
2024-01-31T14:57:26.275Z,2.95
2024-01-31T15:02:28.015Z,2.65
2024-01-31T15:07:31.100Z,3.63
2024-01-31T15:12:34.110Z,3.58
2024-01-31T15:17:36.104Z,3.25
2024-01-31T15:22:37.948Z,5.28
2024-01-31T15:27:40.246Z,3.13
2024-01-31T15:32:44.169Z,4.72
2024-01-31T15:37:48.427Z,4.40
2024-01-31T15:42:50.079Z,10.70
2024-01-31T15:47:51.947Z,4.55
2024-01-31T15:52:53.750Z,4.22
2024-01-31T15:57:55.407Z,6.10
2024-01-31T16:02:57.296Z,9.52
2024-01-31T16:07:59.063Z,4.05
2024-01-31T16:13:00.822Z,7.55
2024-01-31T16:18:02.771Z,6.10
2024-01-31T16:23:05.344Z,5.38
2024-01-31T16:28:07.297Z,5.25
2024-01-31T16:33:09.065Z,5.13
2024-01-31T16:38:12.208Z,3.95
2024-01-31T16:43:13.860Z,3.78
2024-01-31T16:48:15.904Z,5.05
2024-01-31T16:53:17.661Z,3.58
2024-01-31T16:58:19.304Z,3.83
2024-01-31T17:03:21.813Z,5.85
2024-01-31T17:08:26.125Z,4.28
2024-01-31T17:13:27.866Z,5.47
2024-01-31T17:18:29.713Z,4.22
2024-01-31T17:23:35.755Z,4.47
2024-01-31T17:28:37.526Z,4.03
2024-01-31T17:33:39.272Z,4.22
2024-01-31T17:38:41.342Z,5.28
2024-01-31T17:43:43.016Z,7.43
2024-01-31T17:48:44.754Z,4.32
2024-01-31T17:53:46.514Z,4.35
2024-01-31T17:58:49.508Z,4.82
2024-01-31T18:03:51.209Z,4.68
2024-01-31T18:08:52.967Z,4.15
2024-01-31T18:13:54.674Z,6.25
2024-01-31T18:19:02.499Z,4.05
2024-01-31T18:24:06.162Z,4.28
2024-01-31T18:29:07.934Z,4.30
2024-01-31T18:34:09.985Z,6.15
2024-01-31T18:39:12.030Z,8.18
2024-01-31T18:44:13.751Z,8.82
2024-01-31T18:49:18.905Z,10.35
2024-01-31T18:54:20.842Z,8.45
2024-01-31T18:59:22.519Z,6.40
2024-01-31T19:04:24.174Z,18.95
2024-01-31T19:09:25.854Z,10.80
2024-01-31T19:14:28.931Z,11.32
2024-01-31T19:19:30.996Z,14.10
2024-01-31T19:24:35.133Z,14.18
2024-01-31T19:29:36.952Z,14.52
2024-01-31T19:34:38.774Z,14.07
2024-01-31T19:39:40.454Z,16.45
2024-01-31T19:44:42.134Z,17.75
2024-01-31T19:49:43.838Z,16.08
2024-01-31T19:54:45.612Z,14.88
2024-01-31T19:59:47.348Z,15.50
2024-01-31T20:04:49.361Z,12.40
2024-01-31T20:09:51.013Z,13.38
2024-01-31T20:14:52.721Z,12.15
2024-01-31T20:19:54.438Z,9.95
2024-01-31T20:24:56.867Z,11.93
2024-01-31T20:29:58.840Z,9.95
2024-01-31T20:35:00.681Z,9.65
2024-01-31T20:40:02.450Z,8.27
2024-01-31T20:45:04.861Z,14.02
2024-01-31T20:50:08.659Z,10.18
2024-01-31T20:55:10.532Z,12.30
2024-01-31T21:00:12.775Z,11.70
2024-01-31T21:05:14.653Z,13.90
2024-01-31T21:10:17.364Z,12.43
2024-01-31T21:15:19.064Z,11.02
2024-01-31T21:20:20.763Z,12.43
2024-01-31T21:25:22.577Z,12.70
2024-01-31T21:30:24.249Z,11.82
2024-01-31T21:35:25.926Z,12.88
2024-01-31T21:40:27.663Z,14.27
2024-01-31T21:45:29.317Z,11.30
2024-01-31T21:50:31.136Z,8.82
2024-01-31T21:55:32.960Z,9.55
2024-01-31T22:00:34.682Z,12.88
2024-01-31T22:05:37.251Z,12.68
2024-01-31T22:10:39.082Z,11.68
2024-01-31T22:15:40.790Z,13.95
2024-01-31T22:20:42.526Z,11.80
2024-01-31T22:25:45.366Z,11.10
2024-01-31T22:30:47.040Z,14.65
2024-01-31T22:35:48.697Z,16.90
2024-01-31T22:40:50.365Z,16.15
2024-01-31T22:45:51.991Z,10.35
2024-01-31T22:50:53.661Z,13.65
2024-01-31T22:55:55.336Z,11.73
2024-01-31T23:00:57.603Z,14.05
2024-01-31T23:05:59.540Z,16.60
2024-01-31T23:11:01.341Z,14.82
2024-01-31T23:16:03.213Z,14.55
2024-01-31T23:21:08.451Z,16.35
2024-01-31T23:26:10.557Z,12.85
2024-01-31T23:31:12.321Z,14.48
2024-01-31T23:36:14.120Z,12.73
2024-01-31T23:41:15.855Z,15.65
2024-01-31T23:46:18.932Z,19.25
2024-01-31T23:51:20.732Z,16.45
2024-01-31T23:56:23.413Z,19.65
